Time;durP1;ratioP1;P1;durP2;ratioP2;P2;SDS_P1;SDS_P2;PMS_P1;PMS_P2;Temp;Humidity;BMP_temperature;BMP_pressure;BME280_temperature;BME280_humidity;BME280_pressure;Samples;Min_cycle;Max_cycle;Signal;HPM_P1;HPM_P2
2023/01/04 00:00:34;;;;;;;75.20;30.38;;;-0.80;99.90;;;;;;4897844;29;20021;-79
2023/01/04 00:03:00;;;;;;;145.45;47.72;;;-0.80;99.90;;;;;;4881212;29;20029;-79
2023/01/04 00:05:25;;;;;;;106.47;39.58;;;-0.80;99.90;;;;;;4871173;29;20068;-79
2023/01/04 00:07:51;;;;;;;104.95;36.63;;;-0.80;99.90;;;;;;4880823;29;20064;-79
2023/01/04 00:10:16;;;;;;;159.95;39.00;;;-0.80;99.90;;;;;;4897323;29;20071;-78
2023/01/04 00:12:42;;;;;;;108.70;31.80;;;-0.80;99.90;;;;;;4880635;29;20053;-79
2023/01/04 00:15:08;;;;;;;104.68;32.25;;;-0.90;99.90;;;;;;4880432;29;20024;-78
2023/01/04 00:17:34;;;;;;;123.85;33.88;;;-0.80;99.90;;;;;;4880512;29;20096;-77
2023/01/04 00:19:59;;;;;;;89.53;30.73;;;-0.80;99.90;;;;;;4896059;29;20029;-77
2023/01/04 00:22:25;;;;;;;88.43;34.70;;;-0.80;99.90;;;;;;4895600;29;20087;-77
2023/01/04 00:24:51;;;;;;;202.38;58.97;;;-0.80;99.90;;;;;;4896229;29;20020;-78
2023/01/04 00:27:16;;;;;;;150.32;57.25;;;-0.80;99.90;;;;;;4896032;29;20029;-77
2023/01/04 00:29:42;;;;;;;167.55;62.95;;;-0.80;99.90;;;;;;4899536;29;20486;-77
2023/01/04 00:32:07;;;;;;;208.10;66.43;;;-0.90;99.90;;;;;;4883840;29;20032;-77
2023/01/04 00:34:33;;;;;;;166.70;58.80;;;-0.90;99.90;;;;;;4899601;29;20020;-77
2023/01/04 00:36:58;;;;;;;160.85;62.38;;;-0.90;99.90;;;;;;4883634;29;20044;-78
2023/01/04 00:39:24;;;;;;;200.07;62.65;;;-0.90;99.90;;;;;;4883880;29;20428;-77
2023/01/04 00:41:53;;;;;;;158.93;57.65;;;-0.90;99.90;;;;;;4899160;29;20021;-77
2023/01/04 00:44:20;;;;;;;228.27;65.40;;;-1.00;99.90;;;;;;4899393;29;20024;-77
2023/01/04 00:46:47;;;;;;;152.13;55.92;;;-1.00;99.90;;;;;;4900024;29;20028;-77
2023/01/04 00:49:13;;;;;;;199.68;60.47;;;-1.00;99.90;;;;;;4900584;29;20081;-78
2023/01/04 00:51:40;;;;;;;375.52;89.97;;;-1.00;99.90;;;;;;4899961;29;20025;-78
2023/01/04 00:54:09;;;;;;;206.13;68.65;;;-1.00;99.90;;;;;;4865053;29;20036;-78
2023/01/04 00:56:35;;;;;;;375.85;102.05;;;-1.00;99.90;;;;;;4912032;29;20487;-77
2023/01/04 00:59:03;;;;;;;366.85;101.82;;;-1.00;99.90;;;;;;4900100;29;20068;-77
2023/01/04 01:01:30;;;;;;;327.85;93.93;;;-1.00;99.90;;;;;;4886389;29;20028;-79
2023/01/04 01:03:58;;;;;;;249.02;73.38;;;-1.00;99.90;;;;;;4880973;29;20033;-78
2023/01/04 01:06:25;;;;;;;204.52;70.95;;;-1.00;99.90;;;;;;4896017;29;20126;-79
2023/01/04 01:08:51;;;;;;;154.02;46.42;;;-1.00;99.90;;;;;;4883168;29;20383;-78
2023/01/04 01:11:17;;;;;;;105.30;36.10;;;-1.00;99.90;;;;;;4900203;29;20479;-78
2023/01/04 01:13:42;;;;;;;128.25;46.72;;;-1.00;99.90;;;;;;4899169;29;20084;-78
2023/01/04 01:16:11;;;;;;;184.68;63.45;;;-1.00;99.90;;;;;;4899760;29;20060;-77
2023/01/04 01:18:38;;;;;;;161.43;62.22;;;-1.00;99.90;;;;;;4900246;29;20032;-78
2023/01/04 01:21:06;;;;;;;215.38;67.28;;;-1.00;99.90;;;;;;4882969;29;20029;-77
2023/01/04 01:23:31;;;;;;;208.90;66.20;;;-1.00;99.90;;;;;;4883168;29;20156;-78
2023/01/04 01:26:06;;;;;;;274.67;80.53;;;-1.10;99.90;;;;;;4880681;29;20049;-77
2023/01/04 01:28:33;;;;;;;295.05;81.85;;;-1.10;99.90;;;;;;4897648;29;20024;-78
2023/01/04 01:30:59;;;;;;;220.77;69.13;;;-1.10;99.90;;;;;;4880584;29;20020;-78
2023/01/04 01:33:25;;;;;;;319.33;90.18;;;-1.20;99.90;;;;;;4897934;29;20029;-78
2023/01/04 01:35:51;;;;;;;243.00;82.03;;;-1.20;99.90;;;;;;4880604;29;20067;-78
2023/01/04 01:38:16;;;;;;;181.93;70.40;;;-1.20;99.90;;;;;;4880429;29;20104;-77
2023/01/04 01:40:43;;;;;;;176.07;69.88;;;-1.30;99.90;;;;;;4898135;29;20119;-77
2023/01/04 01:43:20;;;;;;;163.65;67.10;;;-1.30;99.90;;;;;;4898127;29;20107;-79
2023/01/04 01:45:55;;;;;;;212.80;79.53;;;-1.20;99.90;;;;;;4898135;29;20047;-77
2023/01/04 01:48:26;;;;;;;180.93;71.68;;;-1.20;99.90;;;;;;4882428;29;20025;-77
2023/01/04 01:51:01;;;;;;;131.38;52.67;;;-1.20;99.90;;;;;;4899284;29;20475;-77
2023/01/04 01:53:30;;;;;;;80.18;36.05;;;-1.20;99.90;;;;;;4899417;29;20535;-77
2023/01/04 01:55:58;;;;;;;66.50;29.25;;;-1.20;99.90;;;;;;4899086;29;20044;-78
2023/01/04 01:58:30;;;;;;;64.68;26.90;;;-1.20;99.90;;;;;;4882396;29;20031;-77
2023/01/04 02:00:56;;;;;;;52.75;24.27;;;-1.20;99.90;;;;;;4899417;29;20039;-78
2023/01/04 02:03:28;;;;;;;50.28;24.15;;;-1.20;99.90;;;;;;4882838;29;20033;-78
2023/01/04 02:05:56;;;;;;;57.20;27.02;;;-1.10;99.90;;;;;;4879183;29;20037;-78
2023/01/04 02:08:24;;;;;;;60.38;25.23;;;-1.10;99.90;;;;;;4892545;29;20028;-78
2023/01/04 02:10:50;;;;;;;55.17;26.23;;;-1.10;99.90;;;;;;4899119;29;20036;-78
2023/01/04 02:13:20;;;;;;;55.95;26.80;;;-1.10;99.90;;;;;;4882116;29;20464;-78
2023/01/04 02:15:55;;;;;;;60.78;28.13;;;-1.10;99.90;;;;;;4882452;29;20041;-78
2023/01/04 02:18:29;;;;;;;56.28;26.77;;;-1.00;99.90;;;;;;4892263;29;20037;-78
2023/01/04 02:20:59;;;;;;;54.78;26.02;;;-1.00;99.90;;;;;;4899042;29;20028;-77
2023/01/04 02:24:00;;;;;;;68.93;28.23;;;-1.00;99.90;;;;;;4898481;29;20052;-78
2023/01/04 02:26:57;;;;;;;89.57;37.60;;;-1.00;99.90;;;;;;4882022;29;20391;-78
2023/01/04 02:29:38;;;;;;;117.88;43.72;;;-0.90;99.90;;;;;;4899077;29;20044;-78
2023/01/04 02:32:24;;;;;;;122.00;46.45;;;-0.90;99.90;;;;;;4881559;29;20029;-78
2023/01/04 02:35:08;;;;;;;116.65;50.28;;;-0.90;99.90;;;;;;4898771;29;20104;-77
2023/01/04 02:37:58;;;;;;;204.75;60.88;;;-0.90;99.90;;;;;;4881642;29;20041;-77
2023/01/04 02:40:57;;;;;;;196.90;61.00;;;-1.00;99.90;;;;;;4898375;29;20387;-77
2023/01/04 02:46:36;;;;;;;339.08;92.55;;;-1.10;99.90;;;;;;4898278;29;20043;-79
2023/01/04 02:51:46;;;;;;;283.55;78.18;;;-1.10;99.90;;;;;;4897455;29;20421;-77
2023/01/04 02:54:20;;;;;;;155.10;49.42;;;-1.10;99.90;;;;;;4898507;29;20108;-78
2023/01/04 02:57:16;;;;;;;163.40;43.42;;;-1.10;99.90;;;;;;4912568;29;20391;-78
2023/01/04 02:59:45;;;;;;;131.18;39.83;;;-1.00;99.90;;;;;;4898268;29;20027;-78
2023/01/04 03:08:43;;;;;;;121.57;40.50;;;-0.90;99.90;;;;;;4881753;29;20043;-78
2023/01/04 03:14:09;;;;;;;142.82;45.78;;;-0.80;99.90;;;;;;4898203;29;20056;-78
2023/01/04 03:16:38;;;;;;;291.38;66.70;;;-0.80;99.90;;;;;;4897797;29;20044;-77
2023/01/04 03:19:08;;;;;;;273.73;74.78;;;-0.80;99.90;;;;;;4881468;29;20032;-78
2023/01/04 03:21:36;;;;;;;203.43;61.88;;;-0.80;99.90;;;;;;4896297;29;20025;-78
2023/01/04 03:36:16;;;;;;;178.07;61.42;;;-0.80;99.90;;;;;;4898194;29;20143;-78
2023/01/04 03:48:26;;;;;;;128.00;52.53;;;-0.60;99.90;;;;;;4897566;29;20089;-78
2023/01/04 03:51:13;;;;;;;142.85;52.22;;;-0.60;99.90;;;;;;4881129;29;20021;-77
2023/01/04 03:53:45;;;;;;;139.77;53.20;;;-0.60;99.90;;;;;;4878045;29;20060;-78
2023/01/04 03:56:11;;;;;;;155.43;53.78;;;-0.50;99.90;;;;;;4880896;29;20037;-78
2023/01/04 03:58:37;;;;;;;233.25;58.45;;;-0.50;99.90;;;;;;4896456;29;20031;-77
2023/01/04 04:01:04;;;;;;;194.88;53.88;;;-0.50;99.90;;;;;;4881245;29;20024;-77
2023/01/04 04:08:59;;;;;;;145.07;52.50;;;-0.30;99.90;;;;;;4901420;29;20570;-78
2023/01/04 04:11:31;;;;;;;151.68;55.28;;;-0.30;99.90;;;;;;4884350;29;20028;-78
2023/01/04 04:13:57;;;;;;;148.48;55.45;;;-0.20;99.90;;;;;;4884200;29;20033;-78
2023/01/04 04:16:23;;;;;;;146.77;57.75;;;-0.20;99.90;;;;;;4883849;29;20044;-79
2023/01/04 04:18:49;;;;;;;173.98;62.75;;;-0.20;99.90;;;;;;4901338;29;20020;-77
2023/01/04 04:21:15;;;;;;;281.88;76.20;;;-0.20;99.90;;;;;;4884376;29;20025;-77
2023/01/04 04:23:40;;;;;;;168.00;56.95;;;-0.10;99.90;;;;;;4899680;29;20109;-77
2023/01/04 04:26:06;;;;;;;142.85;54.55;;;-0.20;99.90;;;;;;4899534;29;20028;-79
2023/01/04 04:28:32;;;;;;;171.10;58.58;;;-0.20;99.90;;;;;;4901178;29;20459;-79
2023/01/04 04:30:58;;;;;;;253.95;68.70;;;-0.20;99.90;;;;;;4900818;29;20448;-79
2023/01/04 04:33:23;;;;;;;346.75;78.20;;;-0.20;99.90;;;;;;4884111;29;20032;-78
2023/01/04 04:35:51;;;;;;;173.82;60.75;;;-0.20;99.90;;;;;;4883685;29;20047;-78
2023/01/04 04:38:17;;;;;;;200.55;57.97;;;-0.20;99.90;;;;;;4900860;29;20543;-78
2023/01/04 04:43:26;;;;;;;181.57;52.72;;;-0.20;99.90;;;;;;4901000;29;20044;-78
2023/01/04 04:45:52;;;;;;;161.85;56.90;;;-0.20;99.90;;;;;;4900494;29;20024;-80
2023/01/04 04:48:17;;;;;;;300.40;75.45;;;-0.20;99.90;;;;;;4900386;29;20033;-78
2023/01/04 04:50:43;;;;;;;191.05;59.58;;;-0.10;99.90;;;;;;4900233;29;20025;-78
2023/01/04 04:53:09;;;;;;;361.13;83.38;;;-0.10;99.90;;;;;;4900516;29;20092;-78
2023/01/04 04:55:34;;;;;;;206.68;60.67;;;-0.20;99.90;;;;;;4880394;29;20021;-78
2023/01/04 04:58:00;;;;;;;171.32;57.72;;;-0.20;99.90;;;;;;4896196;29;20081;-78
2023/01/04 05:00:26;;;;;;;198.80;62.15;;;-0.20;99.90;;;;;;4888781;29;20036;-79
2023/01/04 05:02:52;;;;;;;177.02;58.08;;;-0.20;99.90;;;;;;4905612;29;20460;-78
2023/01/04 05:05:17;;;;;;;222.23;70.55;;;-0.20;99.90;;;;;;4883398;29;20019;-78
2023/01/04 05:07:43;;;;;;;131.77;56.92;;;-0.10;99.90;;;;;;4900072;29;20538;-77
2023/01/04 05:10:09;;;;;;;126.22;53.78;;;-0.20;99.90;;;;;;4883084;29;20415;-79
2023/01/04 05:15:19;;;;;;;147.02;56.72;;;-0.20;99.90;;;;;;4899996;29;20041;-79
2023/01/04 05:17:44;;;;;;;261.40;77.32;;;-0.20;99.90;;;;;;4883108;29;20040;-79
2023/01/04 05:20:10;;;;;;;450.17;106.15;;;-0.20;99.90;;;;;;4898737;29;20021;-78
2023/01/04 05:22:36;;;;;;;177.20;64.75;;;-0.20;99.90;;;;;;4899756;29;20418;-78
2023/01/04 05:25:02;;;;;;;495.50;136.70;;;-0.20;99.90;;;;;;4899933;29;20024;-78
2023/01/04 05:27:27;;;;;;;354.85;110.00;;;-0.20;99.90;;;;;;4898785;29;20044;-78
2023/01/04 05:32:37;;;;;;;214.43;75.18;;;-0.20;99.90;;;;;;4899854;29;20035;-78
2023/01/04 05:35:03;;;;;;;187.50;68.13;;;-0.20;99.90;;;;;;4898699;29;20020;-79
2023/01/04 05:37:28;;;;;;;133.65;53.10;;;-0.10;99.90;;;;;;4882551;29;20124;-79
2023/01/04 05:39:54;;;;;;;336.92;95.00;;;-0.20;99.90;;;;;;4882900;29;20360;-77
2023/01/04 05:42:28;;;;;;;201.27;67.15;;;-0.20;99.90;;;;;;4899606;29;20035;-78
2023/01/04 05:44:56;;;;;;;235.70;70.43;;;-0.20;99.90;;;;;;4899827;29;20079;-78
2023/01/04 05:47:23;;;;;;;136.32;55.75;;;-0.20;99.90;;;;;;4882601;29;20017;-78
2023/01/04 05:49:49;;;;;;;314.17;78.18;;;-0.20;99.90;;;;;;4897936;29;20029;-78
2023/01/04 05:52:15;;;;;;;92.43;45.25;;;-0.20;99.90;;;;;;4899013;29;20543;-78
2023/01/04 05:54:40;;;;;;;123.68;47.58;;;-0.30;99.90;;;;;;4912931;29;20032;-78
2023/01/04 05:57:06;;;;;;;86.95;41.45;;;-0.30;99.90;;;;;;4882250;29;20052;-79
2023/01/04 05:59:32;;;;;;;93.97;44.33;;;-0.40;99.90;;;;;;4882358;29;20415;-79
2023/01/04 06:01:57;;;;;;;87.00;41.25;;;-0.40;99.90;;;;;;4906768;29;20039;-78
2023/01/04 06:04:23;;;;;;;94.20;41.78;;;-0.40;99.90;;;;;;4917010;29;20027;-79
2023/01/04 06:06:49;;;;;;;103.28;44.35;;;-0.40;99.90;;;;;;4917957;29;20383;-77
2023/01/04 06:09:14;;;;;;;99.82;40.25;;;-0.40;99.90;;;;;;4901112;29;20052;-78
2023/01/04 06:11:40;;;;;;;98.55;44.08;;;-0.40;99.90;;;;;;4901473;29;20483;-77
2023/01/04 06:14:05;;;;;;;224.25;66.32;;;-0.40;99.90;;;;;;4900176;29;20089;-77
2023/01/04 06:16:31;;;;;;;95.85;44.47;;;-0.40;99.90;;;;;;4920097;29;20044;-77
2023/01/04 06:18:57;;;;;;;154.77;51.78;;;-0.40;99.90;;;;;;4897982;29;20535;-77
2023/01/04 06:21:24;;;;;;;98.80;44.47;;;-0.40;99.90;;;;;;4897906;29;20112;-77
2023/01/04 06:23:50;;;;;;;102.20;42.15;;;-0.40;99.90;;;;;;4899009;29;20040;-78
2023/01/04 06:26:16;;;;;;;110.63;47.72;;;-0.50;99.90;;;;;;4881328;29;20479;-78
2023/01/04 06:28:41;;;;;;;109.28;45.35;;;-0.50;99.90;;;;;;4880869;29;20029;-77
2023/01/04 06:31:09;;;;;;;101.95;43.88;;;-0.50;99.90;;;;;;4897228;29;20036;-78
2023/01/04 06:33:35;;;;;;;111.20;47.25;;;-0.50;99.90;;;;;;4881579;29;20025;-77
2023/01/04 06:36:00;;;;;;;106.18;43.10;;;-0.50;99.90;;;;;;4898510;29;20052;-78
2023/01/04 06:38:27;;;;;;;124.70;51.35;;;-0.50;99.90;;;;;;4881411;29;20037;-77
2023/01/04 06:40:52;;;;;;;108.65;48.33;;;-0.50;99.90;;;;;;4898380;29;20028;-77
2023/01/04 06:43:18;;;;;;;171.13;64.07;;;-0.50;99.90;;;;;;4896423;29;20535;-77
2023/01/04 06:45:44;;;;;;;308.77;107.68;;;-0.50;99.90;;;;;;4898498;29;20031;-78
2023/01/04 06:48:09;;;;;;;213.77;78.72;;;-0.50;99.90;;;;;;4881315;29;20383;-78
2023/01/04 06:50:35;;;;;;;188.88;70.88;;;-0.50;99.90;;;;;;4879602;29;20403;-78
2023/01/04 06:53:01;;;;;;;174.95;69.22;;;-0.50;99.90;;;;;;4879925;29;20028;-78
2023/01/04 06:55:28;;;;;;;172.50;68.25;;;-0.60;99.90;;;;;;4897270;29;20031;-77
2023/01/04 06:57:57;;;;;;;206.57;77.95;;;-0.60;99.90;;;;;;4896928;29;20024;-78
2023/01/04 07:00:23;;;;;;;461.45;150.90;;;-0.60;99.90;;;;;;4896642;29;20046;-78
2023/01/04 07:02:49;;;;;;;383.02;130.15;;;-0.60;99.90;;;;;;4874745;29;20086;-77
2023/01/04 07:05:15;;;;;;;238.25;90.90;;;-0.60;99.90;;;;;;4874169;29;20033;-78
2023/01/04 07:07:40;;;;;;;198.40;73.95;;;-0.60;99.90;;;;;;4898984;29;20072;-78
2023/01/04 07:10:06;;;;;;;200.52;69.28;;;-0.60;99.90;;;;;;4896323;29;20060;-77
2023/01/04 07:12:32;;;;;;;170.48;67.82;;;-0.60;99.90;;;;;;4895357;29;20028;-78
2023/01/04 07:14:58;;;;;;;190.00;71.00;;;-0.60;99.90;;;;;;4879224;29;20111;-78
2023/01/04 07:17:24;;;;;;;210.30;70.68;;;-0.60;99.90;;;;;;4894485;29;20044;-78
2023/01/04 07:19:50;;;;;;;144.57;58.55;;;-0.70;99.90;;;;;;4897362;29;20499;-77
2023/01/04 07:22:16;;;;;;;250.68;88.28;;;-0.70;99.90;;;;;;4896937;29;20054;-78
2023/01/04 07:24:42;;;;;;;270.77;99.85;;;-0.70;99.90;;;;;;4897608;29;20033;-78
2023/01/04 07:27:11;;;;;;;255.98;94.78;;;-0.80;99.90;;;;;;4879285;29;20084;-78
2023/01/04 07:29:42;;;;;;;403.90;129.40;;;-0.80;99.90;;;;;;4879775;29;20444;-78
2023/01/04 07:32:08;;;;;;;233.32;87.53;;;-0.80;99.90;;;;;;4879504;29;20093;-78
2023/01/04 07:34:33;;;;;;;244.32;86.30;;;-0.80;99.90;;;;;;4879356;29;20482;-79
2023/01/04 07:36:59;;;;;;;321.77;101.97;;;-0.80;99.90;;;;;;4898215;29;20033;-77
2023/01/04 07:39:25;;;;;;;260.98;88.22;;;-0.80;99.90;;;;;;4901844;29;20052;-78
2023/01/04 07:41:50;;;;;;;223.90;84.88;;;-0.80;99.90;;;;;;4884750;29;20025;-78
2023/01/04 07:44:20;;;;;;;171.05;61.03;;;-0.80;99.90;;;;;;4901921;29;20047;-78
2023/01/04 07:46:46;;;;;;;138.15;54.22;;;-0.80;99.90;;;;;;4901226;29;20561;-78
2023/01/04 07:49:14;;;;;;;123.97;54.03;;;-0.80;99.90;;;;;;4884903;29;20016;-78
2023/01/04 07:51:40;;;;;;;136.52;57.03;;;-0.80;99.90;;;;;;4884551;29;20437;-77
2023/01/04 07:54:05;;;;;;;167.48;66.10;;;-0.80;99.90;;;;;;4901754;29;20081;-78
2023/01/04 07:56:31;;;;;;;327.02;103.25;;;-0.80;99.90;;;;;;4901617;29;20072;-78
2023/01/04 07:58:58;;;;;;;533.70;152.35;;;-0.80;99.90;;;;;;4884568;29;20020;-78
2023/01/04 08:01:25;;;;;;;270.05;92.90;;;-0.90;99.90;;;;;;4906047;29;20413;-78
2023/01/04 08:03:51;;;;;;;290.42;104.55;;;-0.90;99.90;;;;;;4902690;29;20077;-77
2023/01/04 08:06:20;;;;;;;400.50;131.73;;;-0.90;99.90;;;;;;4901519;29;20386;-78
2023/01/04 08:08:45;;;;;;;374.23;121.05;;;-0.80;99.90;;;;;;4901293;29;20104;-78
2023/01/04 08:11:14;;;;;;;480.98;171.45;;;-0.90;99.90;;;;;;4900124;29;20063;-78
2023/01/04 08:13:41;;;;;;;364.33;131.93;;;-0.90;99.90;;;;;;4884336;29;20029;-78
2023/01/04 08:16:07;;;;;;;313.52;124.80;;;-0.80;99.90;;;;;;4884456;29;20040;-78
2023/01/04 08:18:33;;;;;;;315.83;118.68;;;-0.80;99.90;;;;;;4901070;29;20064;-78
2023/01/04 08:21:04;;;;;;;319.48;111.85;;;-0.70;99.90;;;;;;4901431;29;20065;-78
2023/01/04 08:23:31;;;;;;;322.20;112.57;;;-0.80;99.90;;;;;;4884162;29;20059;-78
2023/01/04 08:26:04;;;;;;;304.90;118.43;;;-0.70;99.90;;;;;;4884359;29;20056;-78
2023/01/04 08:28:30;;;;;;;;;;;-0.70;99.90;;;;;;4884568;29;20515;-78
2023/01/04 08:30:56;;;;;;;266.85;108.07;;;-0.60;99.90;;;;;;4901121;29;20002;-78
2023/01/04 08:33:21;;;;;;;317.25;127.90;;;-0.50;99.90;;;;;;4900893;29;20016;-78
2023/01/04 08:35:47;;;;;;;314.13;124.53;;;-0.40;99.90;;;;;;4900951;29;20534;-78
2023/01/04 08:38:13;;;;;;;286.73;115.00;;;-0.30;99.90;;;;;;4883852;29;20387;-78
2023/01/04 08:40:38;;;;;;;386.05;145.82;;;-0.20;99.90;;;;;;4899700;29;20088;-78
2023/01/04 08:43:04;;;;;;;465.67;176.57;;;-0.10;99.90;;;;;;4900559;29;20028;-78
2023/01/04 08:45:30;;;;;;;306.73;122.35;;;0.00;99.90;;;;;;4900890;29;20036;-78
2023/01/04 08:47:56;;;;;;;215.02;91.47;;;0.10;99.90;;;;;;4899856;29;20116;-78
2023/01/04 08:50:21;;;;;;;242.45;101.38;;;0.30;99.90;;;;;;4883804;29;20052;-79
2023/01/04 08:52:47;;;;;;;292.38;115.00;;;0.40;99.90;;;;;;4900324;29;20052;-79
2023/01/04 08:55:14;;;;;;;251.43;108.28;;;0.50;99.90;;;;;;4899630;29;20036;-78
2023/01/04 08:57:40;;;;;;;263.13;109.57;;;0.50;99.90;;;;;;4899924;29;20036;-78
2023/01/04 09:00:07;;;;;;;223.10;97.85;;;0.60;99.90;;;;;;4899347;29;20439;-79
2023/01/04 09:02:32;;;;;;;278.35;119.82;;;0.70;99.90;;;;;;4906598;29;20056;-78
2023/01/04 09:04:59;;;;;;;240.18;103.55;;;0.80;99.90;;;;;;4899275;29;20025;-79
2023/01/04 09:07:28;;;;;;;189.45;85.32;;;0.90;99.90;;;;;;4883247;29;20499;-78
2023/01/04 09:09:53;;;;;;;155.23;72.18;;;1.00;99.90;;;;;;4900384;29;20027;-78
2023/01/04 09:12:19;;;;;;;147.60;67.65;;;1.10;99.90;;;;;;4900252;29;20103;-78
2023/01/04 09:14:45;;;;;;;121.40;58.25;;;1.10;99.90;;;;;;4883803;29;20076;-78
2023/01/04 09:17:10;;;;;;;99.03;50.03;;;1.20;99.90;;;;;;4883010;29;20061;-78
2023/01/04 09:19:36;;;;;;;103.22;50.30;;;1.30;99.90;;;;;;4899007;29;20027;-78
2023/01/04 09:22:02;;;;;;;95.43;48.35;;;1.40;99.90;;;;;;4899647;29;20044;-78
2023/01/04 09:24:28;;;;;;;79.85;40.28;;;1.50;99.90;;;;;;4900456;29;20390;-78
2023/01/04 09:26:53;;;;;;;70.43;36.42;;;1.50;99.90;;;;;;4898443;29;20119;-78
2023/01/04 09:29:19;;;;;;;60.67;33.85;;;1.60;99.90;;;;;;4900264;29;20103;-78
2023/01/04 09:31:45;;;;;;;66.13;34.78;;;1.70;99.90;;;;;;4899648;29;20033;-79
2023/01/04 09:34:11;;;;;;;68.03;35.92;;;1.80;99.90;;;;;;4900146;29;20036;-79
2023/01/04 09:36:37;;;;;;;63.35;33.42;;;1.90;99.90;;;;;;4899721;29;20104;-78
2023/01/04 09:39:03;;;;;;;62.38;33.88;;;2.00;99.90;;;;;;4900039;29;20025;-78
2023/01/04 09:41:33;;;;;;;58.08;30.90;;;2.10;99.90;;;;;;4899888;29;20020;-78
2023/01/04 09:44:10;;;;;;;62.58;33.10;;;2.10;99.90;;;;;;4899608;29;20123;-78
2023/01/04 09:46:54;;;;;;;63.10;32.22;;;2.30;99.90;;;;;;4898570;29;20029;-78
2023/01/04 09:49:42;;;;;;;57.42;30.52;;;2.30;99.90;;;;;;4882958;29;20037;-79
2023/01/04 09:52:13;;;;;;;57.42;30.65;;;2.40;99.90;;;;;;4899202;29;20032;-78
2023/01/04 09:54:47;;;;;;;56.67;30.98;;;2.50;99.90;;;;;;4899675;29;20156;-79
2023/01/04 09:57:27;;;;;;;54.65;29.95;;;2.60;99.90;;;;;;4899349;29;20045;-78
2023/01/04 09:59:58;;;;;;;54.45;31.23;;;2.60;99.90;;;;;;4882541;29;20052;-78
2023/01/04 10:02:32;;;;;;;59.67;32.58;;;2.70;99.90;;;;;;4903482;29;20059;-78
2023/01/04 10:05:00;;;;;;;63.10;33.65;;;2.80;99.90;;;;;;4882578;29;20017;-79
2023/01/04 10:07:28;;;;;;;53.55;30.17;;;2.80;99.90;;;;;;4881404;29;20390;-78
2023/01/04 10:09:55;;;;;;;57.67;31.38;;;2.90;99.90;;;;;;4898896;29;20387;-78
2023/01/04 10:12:56;;;;;;;60.42;32.67;;;2.90;99.90;;;;;;4881425;29;20028;-79
2023/01/04 10:15:27;;;;;;;65.72;33.03;;;3.00;99.90;;;;;;4899324;29;20060;-79
2023/01/04 10:18:18;;;;;;;51.17;29.60;;;3.00;99.90;;;;;;4897568;29;20040;-78
2023/01/04 10:21:06;;;;;;;55.95;30.27;;;3.00;99.90;;;;;;4899450;29;20029;-78
2023/01/04 10:24:14;;;;;;;57.00;29.70;;;3.10;99.90;;;;;;4893758;29;20499;-79
2023/01/04 10:26:46;;;;;;;60.08;29.35;;;3.20;99.90;;;;;;4877213;29;20044;-79
2023/01/04 10:29:33;;;;;;;51.63;28.70;;;3.30;99.90;;;;;;4899010;29;20028;-78
2023/01/04 10:32:34;;;;;;;48.70;26.27;;;3.40;99.90;;;;;;4881749;29;20093;-78
2023/01/04 10:35:01;;;;;;;48.22;25.33;;;3.50;99.90;;;;;;4881697;29;20035;-78
2023/01/04 10:37:33;;;;;;;47.83;23.92;;;3.60;99.90;;;;;;4898246;29;20044;-78
2023/01/04 10:39:59;;;;;;;39.58;23.23;;;3.70;99.90;;;;;;4898425;29;20031;-79
2023/01/04 10:42:25;;;;;;;37.95;22.58;;;3.80;99.90;;;;;;4898157;29;20029;-78
2023/01/04 10:45:09;;;;;;;35.40;19.88;;;3.90;99.90;;;;;;4898376;29;20104;-78
2023/01/04 10:47:54;;;;;;;34.67;20.08;;;3.90;99.90;;;;;;4881533;29;20111;-79
2023/01/04 10:50:44;;;;;;;33.75;19.45;;;4.00;99.90;;;;;;4881506;29;20148;-78
2023/01/04 10:53:22;;;;;;;27.83;16.90;;;4.10;99.90;;;;;;4879333;29;20021;-79
2023/01/04 10:55:56;;;;;;;34.42;19.40;;;4.20;99.90;;;;;;4878192;29;20468;-78
2023/01/04 10:58:47;;;;;;;35.70;18.40;;;4.30;99.90;;;;;;4879381;29;20036;-78
2023/01/04 11:01:19;;;;;;;32.33;17.52;;;4.40;99.90;;;;;;4887252;29;20487;-79
2023/01/04 11:04:02;;;;;;;28.63;18.60;;;4.40;99.90;;;;;;4900073;29;20035;-79
2023/01/04 11:06:33;;;;;;;26.20;15.88;;;4.50;99.90;;;;;;4917101;29;20028;-79
2023/01/04 11:09:06;;;;;;;30.08;16.98;;;4.50;99.90;;;;;;4915755;29;20382;-78
2023/01/04 11:11:39;;;;;;;25.98;16.65;;;4.50;99.90;;;;;;4915236;29;20028;-79
2023/01/04 11:14:04;;;;;;;29.33;16.05;;;4.60;99.90;;;;;;4916747;29;20024;-79
2023/01/04 11:16:30;;;;;;;30.23;15.98;;;4.60;99.90;;;;;;4915520;29;20054;-79
2023/01/04 11:18:57;;;;;;;26.10;15.43;;;4.60;99.90;;;;;;4878083;29;20392;-79
2023/01/04 11:21:27;;;;;;;25.00;13.73;;;4.70;99.90;;;;;;4897813;29;20032;-78
2023/01/04 11:23:58;;;;;;;20.10;13.18;;;4.70;99.90;;;;;;4897720;29;20040;-79
2023/01/04 11:26:31;;;;;;;20.67;13.15;;;4.80;99.90;;;;;;4896309;29;20036;-79
2023/01/04 11:29:04;;;;;;;21.65;12.75;;;4.80;99.90;;;;;;4897763;29;20029;-79
2023/01/04 11:31:42;;;;;;;18.63;12.10;;;4.80;99.90;;;;;;4897445;29;20025;-79
2023/01/04 11:34:08;;;;;;;20.38;12.43;;;4.90;99.90;;;;;;4880557;29;20043;-79
2023/01/04 11:36:42;;;;;;;17.38;11.15;;;4.90;99.90;;;;;;4896768;29;20403;-79
2023/01/04 11:39:25;;;;;;;17.33;10.98;;;4.90;99.90;;;;;;4896348;29;20052;-79
2023/01/04 11:41:58;;;;;;;23.52;12.50;;;4.90;99.90;;;;;;4896387;29;20483;-78
2023/01/04 11:44:25;;;;;;;18.85;12.65;;;4.90;99.90;;;;;;4895936;29;20048;-78
2023/01/04 11:47:20;;;;;;;17.38;12.15;;;4.90;99.90;;;;;;4897009;29;20450;-77
2023/01/04 11:49:46;;;;;;;20.33;12.07;;;4.90;99.90;;;;;;4897622;29;20029;-78
2023/01/04 11:52:36;;;;;;;21.70;12.65;;;4.90;99.90;;;;;;4897031;29;20033;-78
2023/01/04 11:55:24;;;;;;;19.20;12.73;;;5.00;99.90;;;;;;4895547;29;20024;-78
2023/01/04 11:58:10;;;;;;;19.90;12.15;;;5.00;99.90;;;;;;4889428;29;20037;-78
2023/01/04 12:00:36;;;;;;;17.98;11.20;;;5.00;99.90;;;;;;4896385;29;20041;-79
2023/01/04 12:03:18;;;;;;;19.75;12.23;;;5.10;99.90;;;;;;4902220;29;20032;-79
2023/01/04 12:05:43;;;;;;;17.42;10.65;;;5.10;99.90;;;;;;4885849;29;20039;-80
2023/01/04 12:08:27;;;;;;;16.13;10.73;;;5.10;99.90;;;;;;4896238;29;20028;-78
2023/01/04 12:10:53;;;;;;;17.88;12.02;;;5.20;99.90;;;;;;4897449;29;20383;-79
2023/01/04 12:13:19;;;;;;;15.70;10.77;;;5.20;99.90;;;;;;4897305;29;20028;-79
2023/01/04 12:16:02;;;;;;;15.02;9.32;;;5.20;99.90;;;;;;4895338;29;20028;-79
2023/01/04 12:18:33;;;;;;;14.38;8.23;;;5.30;99.90;;;;;;4895570;29;20033;-79
2023/01/04 12:21:00;;;;;;;13.43;8.85;;;5.30;99.90;;;;;;4880542;29;20032;-78
2023/01/04 12:23:26;;;;;;;13.18;7.85;;;5.30;99.90;;;;;;4897082;29;20055;-77
2023/01/04 12:25:53;;;;;;;11.52;6.90;;;5.30;99.90;;;;;;4899578;29;20161;-79
2023/01/04 12:28:35;;;;;;;10.57;7.45;;;5.40;99.90;;;;;;4898968;29;20032;-79
2023/01/04 12:31:19;;;;;;;12.32;6.35;;;5.40;99.90;;;;;;4899160;29;20033;-79
2023/01/04 12:33:49;;;;;;;9.90;6.40;;;5.40;99.90;;;;;;4879137;29;20033;-79
2023/01/04 12:36:20;;;;;;;11.15;5.65;;;5.40;99.90;;;;;;4895351;29;20036;-79
2023/01/04 12:39:01;;;;;;;11.55;6.13;;;5.50;99.90;;;;;;4899307;29;20035;-79
2023/01/04 12:41:33;;;;;;;10.23;6.18;;;5.50;99.90;;;;;;4900187;29;20084;-79
2023/01/04 12:44:00;;;;;;;8.40;6.18;;;5.40;99.90;;;;;;4914870;29;20036;-79
2023/01/04 12:49:25;;;;;;;9.43;5.90;;;5.50;99.90;;;;;;4899459;29;20047;-79
2023/01/04 12:52:09;;;;;;;11.55;6.00;;;5.40;99.90;;;;;;4898227;29;20033;-79
2023/01/04 12:54:45;;;;;;;10.32;6.30;;;5.40;99.90;;;;;;4904299;29;20091;-79
2023/01/04 12:57:17;;;;;;;10.93;5.85;;;5.40;99.90;;;;;;4902421;29;20131;-79
2023/01/04 12:59:54;;;;;;;11.38;6.32;;;5.40;99.90;;;;;;4899628;29;20161;-78
2023/01/04 13:02:24;;;;;;;10.18;5.97;;;5.40;99.90;;;;;;4878574;29;20017;-78
2023/01/04 13:05:01;;;;;;;10.18;6.30;;;5.40;99.90;;;;;;4898395;29;20083;-79
2023/01/04 13:07:39;;;;;;;7.15;5.50;;;5.40;99.90;;;;;;4897900;29;20384;-79
2023/01/04 13:10:26;;;;;;;10.13;5.75;;;5.40;99.90;;;;;;4897142;29;20017;-78
2023/01/04 13:13:00;;;;;;;7.57;5.82;;;5.40;99.90;;;;;;4893274;29;20374;-78
2023/01/04 13:16:03;;;;;;;8.98;5.47;;;5.40;99.90;;;;;;4879240;29;21453;-78
2023/01/04 13:18:54;;;;;;;8.35;5.35;;;5.50;99.90;;;;;;4898164;29;20041;-78
2023/01/04 13:21:37;;;;;;;11.38;7.10;;;5.40;99.90;;;;;;4895473;29;20316;-78
2023/01/04 13:24:21;;;;;;;6.85;5.10;;;5.40;99.90;;;;;;4888429;29;20044;-79
2023/01/04 13:26:47;;;;;;;8.85;6.18;;;5.40;99.90;;;;;;4898142;29;20104;-79
2023/01/04 13:29:19;;;;;;;10.35;5.40;;;5.50;99.90;;;;;;4894995;29;20025;-79
2023/01/04 13:31:53;;;;;;;8.80;5.82;;;5.50;99.90;;;;;;4891783;29;20380;-79
2023/01/04 13:34:32;;;;;;;10.68;6.05;;;5.40;99.90;;;;;;4893980;29;20053;-79